TRLO2: Red River Nr Terral, OK

Data processed at Sat Mar 10 2018 23:07


All information presented herein is the property of the government of the United States of America and may be revised or deleted at any time without prior notice.
Dissemination of this information without the expressed written consent of the Public Affairs Office, Tulsa District U.S. Army Corps of Engineers is strictly prohibited.
These data are gathered electronically and, as presented, have not undergone any form of quality control. These data are not guaranteed to be valid or correct.
Go to home page.
Go to station list.

Upstream stations:

Downstream station:
Previous Day
Next Day
Current Day
    
SHEF ID:       TRLO2     Red Rv nr Terral, OK
STATION TYPE:  

               PRECIP     STAGE  RIV-FLOW   VOLTAGE  BAT-LOAD
                   in        ft       cfs      volt      volt
              Ccp-Rev   Ccp-Rev   Ccp-Rev   Ccp-Rev   Ccp-Rev
(US/Central)
03/08 00:00      0.00      7.26       503     13.10     12.65
03/08 01:00      0.00      7.25       499     13.10     12.65
03/08 02:00      0.00      7.25       499     13.00     12.60
03/08 03:00      0.00      7.26       503     13.00     12.54
03/08 04:00      0.00      7.25       499     12.90     12.54
03/08 05:00      0.00      7.24       495     12.90     12.48
03/08 06:00      0.00      7.25       499     12.90     12.48
03/08 07:00      0.00      7.26       503     12.90     12.42
03/08 08:00      0.00      7.25       499     13.30     12.42
03/08 09:00      0.00      7.24       495     15.00     12.77
03/08 10:00      0.00      7.25       499     14.60     13.77
03/08 11:00      0.00      7.22       487     14.20     13.83
03/08 12:00      0.00      7.22       487     14.20     13.88
03/08 13:00      0.00      7.18       471     14.00     13.71
03/08 14:00      0.00      7.17       467     14.40     14.00
03/08 15:00      0.00      7.17       467     14.20     13.83
03/08 16:00      0.00      7.17       467     13.90     13.88
03/08 17:00      0.00      7.18       471     14.30     13.71
03/08 18:00      0.00      7.18       471     13.50     13.24
03/08 19:00      0.00      7.20       479     13.30     13.00
03/08 20:00      0.00      7.20       479     13.20     12.83
03/08 21:00      0.00      7.19       475     13.20     12.77
03/08 22:00      0.00      7.19       475     13.20     12.71
03/08 23:00      0.00      7.19       475     13.10     12.71